createdAt,value
2018-12-31T00:03:56.122Z,98.37
2018-12-31T00:06:21.885Z,98.48
2018-12-31T00:08:47.685Z,98.42
2018-12-31T00:11:13.456Z,98.25
2018-12-31T00:16:24.788Z,97.85
2018-12-31T00:18:50.589Z,97.95
2018-12-31T00:21:16.366Z,97.99
2018-12-31T00:23:42.127Z,98.07
2018-12-31T00:26:07.925Z,98.12
2018-12-31T00:28:33.683Z,98.11
2018-12-31T00:30:59.439Z,98.08
2018-12-31T00:33:25.212Z,97.90
2018-12-31T00:35:50.969Z,97.87
2018-12-31T00:38:16.734Z,98.09
2018-12-31T00:40:42.525Z,98.20
2018-12-31T00:43:08.417Z,98.09
2018-12-31T00:45:34.198Z,98.01
2018-12-31T00:47:59.981Z,97.97
2018-12-31T00:50:26.995Z,98.07
2018-12-31T00:52:53.428Z,97.88
2018-12-31T00:58:26.422Z,98.20
2018-12-31T01:00:52.247Z,98.33
2018-12-31T01:03:18.029Z,98.36
2018-12-31T01:05:43.831Z,98.29
2018-12-31T01:08:09.609Z,98.25
2018-12-31T01:10:35.467Z,98.17
2018-12-31T01:13:01.234Z,98.16
2018-12-31T01:15:26.996Z,98.29
2018-12-31T01:17:53.440Z,98.36
2018-12-31T01:20:19.256Z,98.19
2018-12-31T01:22:44.990Z,98.33
2018-12-31T01:25:11.585Z,98.30
2018-12-31T01:27:37.345Z,98.10
2018-12-31T01:30:44.771Z,98.34
2018-12-31T01:33:10.542Z,98.29
2018-12-31T01:35:36.302Z,98.40
2018-12-31T01:38:02.080Z,98.39
2018-12-31T01:40:28.496Z,98.28
2018-12-31T01:42:54.234Z,98.20
2018-12-31T01:45:20.063Z,98.23
2018-12-31T01:47:45.841Z,98.16
2018-12-31T01:50:11.642Z,98.20
2018-12-31T01:52:37.412Z,98.25
2018-12-31T01:55:44.877Z,98.21
2018-12-31T01:58:10.663Z,98.04
2018-12-31T02:00:36.438Z,98.19
2018-12-31T02:03:02.207Z,98.10
2018-12-31T02:05:27.995Z,98.06
2018-12-31T02:07:53.749Z,98.23
2018-12-31T02:10:19.656Z,98.23
2018-12-31T02:13:27.211Z,98.34
2018-12-31T02:15:53.002Z,98.41
2018-12-31T02:18:19.362Z,98.34
2018-12-31T02:20:45.137Z,98.19
2018-12-31T02:23:10.890Z,98.22
2018-12-31T02:25:36.657Z,98.18
2018-12-31T02:28:02.620Z,98.13
2018-12-31T02:30:28.380Z,98.22
2018-12-31T02:32:54.819Z,98.31
2018-12-31T02:35:20.688Z,98.47
2018-12-31T02:37:46.546Z,98.47
2018-12-31T02:40:32.636Z,98.38
2018-12-31T02:42:58.417Z,98.37
2018-12-31T02:45:24.176Z,98.33
2018-12-31T02:47:49.974Z,98.33
2018-12-31T02:50:15.729Z,98.35
2018-12-31T02:52:41.498Z,98.25
2018-12-31T02:55:07.272Z,98.20
2018-12-31T02:57:33.050Z,98.18
2018-12-31T02:59:59.160Z,98.26
2018-12-31T03:02:26.485Z,98.31
2018-12-31T03:04:52.263Z,98.30
2018-12-31T03:07:18.276Z,98.31
2018-12-31T03:09:44.054Z,98.21
2018-12-31T03:12:09.841Z,98.21
2018-12-31T03:14:35.594Z,98.28
2018-12-31T03:17:01.382Z,98.29
2018-12-31T03:19:27.138Z,98.25
2018-12-31T03:21:53.068Z,98.39
2018-12-31T03:24:18.838Z,98.49
2018-12-31T03:26:44.614Z,98.43
2018-12-31T03:29:10.401Z,98.45
2018-12-31T03:31:36.180Z,98.39
2018-12-31T03:34:02.192Z,98.31
2018-12-31T03:36:27.938Z,98.33
2018-12-31T03:38:54.562Z,98.48
2018-12-31T03:41:20.342Z,98.51
2018-12-31T03:43:46.120Z,98.50
2018-12-31T03:46:12.056Z,98.70
2018-12-31T03:48:38.343Z,98.57
2018-12-31T03:51:04.165Z,98.68
2018-12-31T03:53:29.946Z,98.43
2018-12-31T03:55:55.716Z,98.29
2018-12-31T03:58:21.492Z,98.35
2018-12-31T04:00:47.256Z,98.25
2018-12-31T04:03:13.030Z,98.08
2018-12-31T04:05:39.033Z,98.35
2018-12-31T04:08:04.783Z,98.51
2018-12-31T04:10:30.737Z,98.56
2018-12-31T04:12:56.590Z,98.56
2018-12-31T04:15:22.372Z,98.57
2018-12-31T04:17:48.171Z,98.56
2018-12-31T04:20:13.951Z,98.70
2018-12-31T04:22:39.704Z,98.79
2018-12-31T04:25:05.481Z,98.83
2018-12-31T04:27:31.253Z,98.90
2018-12-31T04:29:57.026Z,99.03
2018-12-31T04:32:22.788Z,99.03
2018-12-31T04:34:48.558Z,99.05
2018-12-31T04:37:14.319Z,99.09
2018-12-31T04:39:40.097Z,99.05
2018-12-31T04:42:05.850Z,98.99
2018-12-31T04:44:31.621Z,99.06
2018-12-31T04:46:57.396Z,99.14
2018-12-31T04:49:23.180Z,99.00
2018-12-31T04:51:48.982Z,99.04
2018-12-31T04:54:14.735Z,99.09
2018-12-31T04:56:40.517Z,99.22
2018-12-31T04:59:06.283Z,99.23
2018-12-31T05:01:32.065Z,99.27
2018-12-31T05:03:57.841Z,99.15
2018-12-31T05:06:23.617Z,99.27
2018-12-31T05:08:49.374Z,99.22
2018-12-31T05:11:15.155Z,99.18
2018-12-31T05:13:40.911Z,99.08
2018-12-31T05:16:06.684Z,99.00
2018-12-31T05:18:32.443Z,99.12
2018-12-31T05:20:58.248Z,99.14
2018-12-31T05:23:24.021Z,99.23
2018-12-31T05:25:49.797Z,99.20
2018-12-31T05:28:15.580Z,99.16
2018-12-31T05:30:41.359Z,99.28
2018-12-31T05:33:07.121Z,99.27
2018-12-31T05:35:32.891Z,99.37
2018-12-31T05:37:58.670Z,99.39
2018-12-31T05:40:24.428Z,99.35
2018-12-31T05:42:50.203Z,99.31
2018-12-31T05:45:15.971Z,99.37
2018-12-31T05:47:41.748Z,99.43
2018-12-31T05:50:07.506Z,99.39
2018-12-31T05:52:33.282Z,99.42
2018-12-31T05:54:59.036Z,99.54
2018-12-31T05:57:24.831Z,99.54
2018-12-31T05:59:50.604Z,99.54
2018-12-31T06:02:16.380Z,99.49
2018-12-31T06:04:42.210Z,99.47
2018-12-31T06:07:07.944Z,99.50
2018-12-31T06:09:33.731Z,99.56
2018-12-31T06:11:59.510Z,99.49
2018-12-31T06:14:25.283Z,99.53
2018-12-31T06:16:51.060Z,99.56
2018-12-31T06:19:16.822Z,99.58
2018-12-31T06:21:42.645Z,99.54
2018-12-31T06:24:08.402Z,99.49
2018-12-31T06:26:34.181Z,99.47
2018-12-31T06:28:59.972Z,99.42
2018-12-31T06:31:25.750Z,99.42
2018-12-31T06:33:51.547Z,99.32
2018-12-31T06:36:17.309Z,99.37
2018-12-31T06:38:43.096Z,99.39
2018-12-31T06:41:08.837Z,99.23
2018-12-31T06:43:34.629Z,99.53
2018-12-31T06:46:00.394Z,99.64
2018-12-31T06:48:26.192Z,99.69
2018-12-31T06:50:51.966Z,99.66
2018-12-31T06:53:17.743Z,99.64
2018-12-31T06:55:43.505Z,99.56
2018-12-31T06:58:09.286Z,99.67
2018-12-31T07:00:54.946Z,99.49
2018-12-31T07:03:20.739Z,99.49
2018-12-31T07:05:46.495Z,99.69
2018-12-31T07:08:12.284Z,99.79
2018-12-31T07:10:38.055Z,99.74
2018-12-31T07:13:03.829Z,99.79
2018-12-31T07:15:29.601Z,99.78
2018-12-31T07:17:55.359Z,99.76
2018-12-31T07:20:21.151Z,99.74
2018-12-31T07:22:46.908Z,99.71
2018-12-31T07:25:12.692Z,99.67
2018-12-31T07:27:38.466Z,99.75
2018-12-31T07:33:17.529Z,99.91
2018-12-31T07:35:43.329Z,99.81
2018-12-31T07:38:09.086Z,99.81
2018-12-31T07:40:34.856Z,99.80
2018-12-31T07:43:00.616Z,99.86
2018-12-31T07:45:26.386Z,99.82
2018-12-31T07:47:52.167Z,99.82
2018-12-31T07:50:17.953Z,99.84
2018-12-31T07:52:43.730Z,99.92
2018-12-31T07:55:09.512Z,99.86
2018-12-31T07:57:35.278Z,99.93
2018-12-31T08:00:01.189Z,99.92
2018-12-31T08:02:26.948Z,99.93
2018-12-31T08:07:26.212Z,100.00
2018-12-31T08:09:51.984Z,100.00
2018-12-31T08:12:17.765Z,99.98
2018-12-31T08:14:43.552Z,100.00
2018-12-31T08:17:09.323Z,100.00
2018-12-31T08:19:35.086Z,100.00
2018-12-31T08:22:00.881Z,100.00
2018-12-31T08:24:26.636Z,100.00
2018-12-31T08:26:52.422Z,100.00
2018-12-31T08:29:18.177Z,100.00
2018-12-31T08:31:43.946Z,100.00
2018-12-31T08:34:09.729Z,100.00
2018-12-31T08:36:35.516Z,100.00
2018-12-31T08:39:01.276Z,100.00
2018-12-31T08:41:27.050Z,100.00
2018-12-31T08:43:52.832Z,100.00
2018-12-31T08:46:18.632Z,100.00
2018-12-31T08:48:44.405Z,100.00
2018-12-31T08:51:10.192Z,99.90
2018-12-31T08:53:35.959Z,99.89
2018-12-31T08:56:01.752Z,99.92
2018-12-31T08:58:27.510Z,99.98
2018-12-31T09:00:53.266Z,99.96
2018-12-31T09:03:19.042Z,100.00
2018-12-31T09:05:44.822Z,100.00
2018-12-31T09:08:10.593Z,99.89
2018-12-31T09:10:36.367Z,99.95
2018-12-31T09:13:02.134Z,100.00
2018-12-31T09:15:27.900Z,100.00
2018-12-31T09:17:53.699Z,100.00
2018-12-31T09:20:19.460Z,100.00
2018-12-31T09:22:45.242Z,100.00
2018-12-31T09:25:10.994Z,99.93
2018-12-31T09:27:36.761Z,99.96
2018-12-31T09:30:44.212Z,100.00
2018-12-31T09:33:09.990Z,100.00
2018-12-31T09:35:35.742Z,99.99
2018-12-31T09:38:01.520Z,99.98
2018-12-31T09:40:27.308Z,99.97
2018-12-31T09:42:53.085Z,100.00
2018-12-31T09:45:18.868Z,99.99
2018-12-31T09:47:44.648Z,100.00
2018-12-31T09:50:10.418Z,99.97
2018-12-31T09:52:36.200Z,100.00
2018-12-31T09:55:43.649Z,99.98
2018-12-31T09:58:09.428Z,100.00
2018-12-31T10:00:35.207Z,99.87
2018-12-31T10:03:01.024Z,100.00
2018-12-31T10:05:26.800Z,100.00
2018-12-31T10:07:52.562Z,99.93
2018-12-31T10:10:18.349Z,99.91
2018-12-31T10:12:44.114Z,99.98
2018-12-31T10:15:09.904Z,99.74
2018-12-31T10:17:35.676Z,99.79
2018-12-31T10:20:01.459Z,99.72
2018-12-31T10:22:27.233Z,99.76
2018-12-31T10:24:53.014Z,99.70
2018-12-31T10:27:18.805Z,99.54
2018-12-31T10:29:44.549Z,99.66
2018-12-31T10:32:10.323Z,99.71
2018-12-31T10:34:36.098Z,99.61
2018-12-31T10:37:01.864Z,99.60
2018-12-31T10:39:27.651Z,99.65
2018-12-31T10:41:53.421Z,99.63
2018-12-31T10:44:19.191Z,99.48
2018-12-31T10:46:45.236Z,99.51
2018-12-31T10:49:12.669Z,99.25
2018-12-31T10:51:38.444Z,99.39
2018-12-31T10:54:04.203Z,99.48
2018-12-31T10:56:29.995Z,99.61
2018-12-31T10:58:55.778Z,99.31
2018-12-31T11:01:21.638Z,99.44
2018-12-31T11:03:47.448Z,99.49
2018-12-31T11:06:13.217Z,99.53
2018-12-31T11:08:38.988Z,99.50
2018-12-31T11:11:04.770Z,99.67
2018-12-31T11:13:30.519Z,99.43
2018-12-31T11:15:56.291Z,99.54
2018-12-31T11:18:22.086Z,99.48
2018-12-31T11:20:48.597Z,99.51
2018-12-31T11:23:14.351Z,99.52
2018-12-31T11:25:40.214Z,99.52
2018-12-31T11:28:06.069Z,99.55
2018-12-31T11:30:31.852Z,99.43
2018-12-31T11:32:57.623Z,99.49
2018-12-31T11:35:23.382Z,99.50
2018-12-31T11:37:49.157Z,99.54
2018-12-31T11:40:14.917Z,99.49
2018-12-31T11:42:40.699Z,99.62
2018-12-31T11:45:06.455Z,99.54
2018-12-31T11:47:32.236Z,99.38
2018-12-31T11:49:59.635Z,99.35
2018-12-31T11:52:25.698Z,99.36
2018-12-31T11:54:51.445Z,99.34
2018-12-31T11:57:17.209Z,99.36
2018-12-31T11:59:42.967Z,99.22
2018-12-31T12:02:08.770Z,99.28
2018-12-31T12:04:35.421Z,99.75
2018-12-31T12:07:02.016Z,99.81
2018-12-31T12:09:28.234Z,100.00
2018-12-31T12:11:54.022Z,100.00
2018-12-31T12:14:20.223Z,99.71
2018-12-31T12:16:46.009Z,99.41
2018-12-31T12:19:11.799Z,99.36
2018-12-31T12:21:37.560Z,99.21
2018-12-31T12:24:03.330Z,99.11
2018-12-31T12:26:29.088Z,98.95
2018-12-31T12:28:54.868Z,99.10
2018-12-31T12:31:20.628Z,99.04
2018-12-31T12:33:48.313Z,99.17
2018-12-31T12:36:14.071Z,98.92
2018-12-31T12:38:39.840Z,98.82
2018-12-31T12:41:05.602Z,98.82
2018-12-31T12:43:31.388Z,98.69
2018-12-31T12:45:57.152Z,98.93
2018-12-31T12:48:24.829Z,98.76
2018-12-31T12:50:50.591Z,98.64
2018-12-31T12:53:16.376Z,98.80
2018-12-31T12:55:42.141Z,98.58
2018-12-31T12:58:07.937Z,98.33
2018-12-31T13:00:33.870Z,98.56
2018-12-31T13:05:46.044Z,98.62
2018-12-31T13:08:11.819Z,98.47
2018-12-31T13:10:37.577Z,98.22
2018-12-31T13:13:03.338Z,97.99
2018-12-31T13:15:31.010Z,98.31
2018-12-31T13:17:56.790Z,98.05
2018-12-31T13:20:22.569Z,98.07
2018-12-31T13:22:48.321Z,98.14
2018-12-31T13:25:14.110Z,98.21
2018-12-31T13:27:39.872Z,98.36
2018-12-31T13:30:10.520Z,98.42
2018-12-31T13:32:35.225Z,98.12
2018-12-31T13:35:01.010Z,98.20
2018-12-31T13:37:26.862Z,98.38
2018-12-31T13:39:52.636Z,98.00
2018-12-31T13:42:20.332Z,97.74
2018-12-31T13:44:46.085Z,97.54
2018-12-31T13:47:31.747Z,97.58
2018-12-31T13:49:57.542Z,97.58
2018-12-31T13:52:23.308Z,97.88
2018-12-31T13:54:49.141Z,97.49
2018-12-31T13:57:16.813Z,97.50
2018-12-31T13:59:42.586Z,97.55
2018-12-31T14:02:08.369Z,97.30
2018-12-31T14:04:34.199Z,97.35
2018-12-31T14:06:59.958Z,97.52
2018-12-31T14:09:25.721Z,97.53
2018-12-31T14:11:53.509Z,97.35
2018-12-31T14:14:19.264Z,97.12
2018-12-31T14:16:45.027Z,97.02
2018-12-31T14:19:10.776Z,96.86
2018-12-31T14:21:36.583Z,96.71
2018-12-31T14:24:02.342Z,96.63
2018-12-31T14:26:28.109Z,96.60
2018-12-31T14:28:53.869Z,96.52
2018-12-31T14:31:19.647Z,96.48
2018-12-31T14:33:45.401Z,96.53
2018-12-31T14:36:11.257Z,96.41
2018-12-31T14:38:37.012Z,96.85
2018-12-31T14:41:02.786Z,96.90
2018-12-31T14:43:30.445Z,96.82
2018-12-31T14:45:56.244Z,96.79
2018-12-31T14:48:22.126Z,96.81
2018-12-31T14:50:47.882Z,96.99
2018-12-31T14:53:13.645Z,96.95
2018-12-31T14:55:39.413Z,97.00
2018-12-31T14:58:05.300Z,96.75
2018-12-31T15:00:31.068Z,96.82
2018-12-31T15:02:56.852Z,96.80
2018-12-31T15:05:22.633Z,96.83
2018-12-31T15:07:48.409Z,96.53
2018-12-31T15:10:55.882Z,96.00
2018-12-31T15:13:21.664Z,96.00
2018-12-31T15:15:47.428Z,95.72
2018-12-31T15:18:13.204Z,95.44
2018-12-31T15:20:38.963Z,95.06
2018-12-31T15:23:04.734Z,94.90
2018-12-31T15:25:30.497Z,94.92
2018-12-31T15:27:56.286Z,94.63
2018-12-31T15:30:22.061Z,94.73
2018-12-31T15:32:47.837Z,94.66
2018-12-31T15:35:13.665Z,95.07
2018-12-31T15:37:41.380Z,95.16
2018-12-31T15:43:34.212Z,95.01
2018-12-31T15:45:59.970Z,94.92
2018-12-31T15:48:25.752Z,95.12
2018-12-31T15:50:51.531Z,95.18
2018-12-31T15:53:17.336Z,95.71
2018-12-31T15:56:04.886Z,96.36
2018-12-31T15:58:30.679Z,96.36
2018-12-31T16:00:56.433Z,96.92
2018-12-31T16:03:22.226Z,96.96
2018-12-31T16:05:47.992Z,97.16
2018-12-31T16:08:13.772Z,96.93
2018-12-31T16:10:39.527Z,96.75
2018-12-31T16:13:05.304Z,96.85
2018-12-31T16:15:31.076Z,96.90
2018-12-31T16:17:56.840Z,96.90
2018-12-31T16:20:22.612Z,96.86
2018-12-31T16:22:50.300Z,96.94
2018-12-31T16:25:16.069Z,97.03
2018-12-31T16:27:41.844Z,97.12
2018-12-31T16:30:07.614Z,97.40
2018-12-31T16:32:33.386Z,97.80
2018-12-31T16:34:59.161Z,97.55
2018-12-31T16:37:24.933Z,97.92
2018-12-31T16:39:52.617Z,98.29
2018-12-31T16:42:18.393Z,98.33
2018-12-31T16:44:44.177Z,98.33
2018-12-31T16:47:09.954Z,98.34
2018-12-31T16:49:35.727Z,98.25
2018-12-31T16:52:02.764Z,97.55
2018-12-31T16:54:29.224Z,97.34
2018-12-31T16:56:55.001Z,97.48
2018-12-31T16:59:20.779Z,97.28
2018-12-31T17:01:46.670Z,97.48
2018-12-31T17:04:12.463Z,97.83
2018-12-31T17:06:38.229Z,97.41
2018-12-31T17:09:45.701Z,97.28
2018-12-31T17:12:11.489Z,97.45
2018-12-31T17:14:37.243Z,97.49
2018-12-31T17:17:03.025Z,97.85
2018-12-31T17:19:28.784Z,98.48
2018-12-31T17:21:54.553Z,98.76
2018-12-31T17:24:20.312Z,98.62
2018-12-31T17:26:46.075Z,98.73
2018-12-31T17:29:11.853Z,98.63
2018-12-31T17:31:37.617Z,98.80
2018-12-31T17:34:03.494Z,98.77
2018-12-31T17:36:29.258Z,98.70
2018-12-31T17:38:55.047Z,98.77
2018-12-31T17:41:20.816Z,98.78
2018-12-31T17:43:46.600Z,98.81
2018-12-31T17:46:12.395Z,98.70
2018-12-31T17:48:38.172Z,98.81
2018-12-31T17:51:04.130Z,98.77
2018-12-31T17:53:29.911Z,98.88
2018-12-31T17:55:55.673Z,98.78
2018-12-31T17:58:21.467Z,98.78
2018-12-31T18:00:47.223Z,98.65
2018-12-31T18:03:13.017Z,98.49
2018-12-31T18:05:38.797Z,98.35
2018-12-31T18:08:06.490Z,98.24
2018-12-31T18:10:32.247Z,98.16
2018-12-31T18:12:58.035Z,98.10
2018-12-31T18:15:23.805Z,98.07
2018-12-31T18:17:49.566Z,97.95
2018-12-31T18:20:15.353Z,97.87
2018-12-31T18:22:43.020Z,97.86
2018-12-31T18:25:08.883Z,97.76
2018-12-31T18:27:34.634Z,97.69
2018-12-31T18:30:00.405Z,97.57
2018-12-31T18:32:26.184Z,97.52
2018-12-31T18:34:51.958Z,97.45
2018-12-31T18:37:17.716Z,97.39
2018-12-31T18:39:49.180Z,97.33
2018-12-31T18:42:11.179Z,97.35
2018-12-31T18:44:36.945Z,97.28
2018-12-31T18:47:02.713Z,97.26
2018-12-31T18:49:28.511Z,97.20
2018-12-31T18:51:54.286Z,97.00
2018-12-31T18:54:21.963Z,96.99
2018-12-31T18:56:47.737Z,96.84
2018-12-31T18:59:13.502Z,96.85
2018-12-31T19:01:39.290Z,96.86
2018-12-31T19:04:05.062Z,96.90
2018-12-31T19:06:30.835Z,96.76
2018-12-31T19:08:56.635Z,96.72
2018-12-31T19:11:24.300Z,96.58
2018-12-31T19:13:50.057Z,96.48
2018-12-31T19:16:15.843Z,96.58
2018-12-31T19:18:41.606Z,96.51
2018-12-31T19:21:07.383Z,96.45
2018-12-31T19:23:33.151Z,96.39
2018-12-31T19:25:58.929Z,96.44
2018-12-31T19:28:24.681Z,96.62
2018-12-31T19:30:50.465Z,96.79
2018-12-31T19:33:16.248Z,96.71
2018-12-31T19:35:42.040Z,96.82
2018-12-31T19:38:07.798Z,96.99
2018-12-31T19:40:33.584Z,97.16
2018-12-31T19:42:59.351Z,97.33
2018-12-31T19:45:25.142Z,97.43
2018-12-31T19:47:50.897Z,97.57
2018-12-31T19:50:16.686Z,97.77
2018-12-31T19:52:42.436Z,97.92
2018-12-31T19:55:08.203Z,97.99
2018-12-31T19:57:33.981Z,98.11
2018-12-31T20:02:55.610Z,98.06
2018-12-31T20:05:21.382Z,98.04
2018-12-31T20:07:47.144Z,98.01
2018-12-31T20:10:13.140Z,97.99
2018-12-31T20:12:38.898Z,97.86
2018-12-31T20:15:04.661Z,97.80
2018-12-31T20:17:30.429Z,97.69
2018-12-31T20:19:56.216Z,97.73
2018-12-31T20:22:21.990Z,97.62
2018-12-31T20:24:47.762Z,97.54
2018-12-31T20:27:15.436Z,97.37
2018-12-31T20:29:41.187Z,97.39
2018-12-31T20:32:06.962Z,97.35
2018-12-31T20:34:32.725Z,97.34
2018-12-31T20:36:58.505Z,97.28
2018-12-31T20:39:24.278Z,97.16
2018-12-31T20:41:50.046Z,97.06
2018-12-31T20:44:15.802Z,97.08
2018-12-31T20:46:41.571Z,96.92
2018-12-31T20:49:07.339Z,96.79
2018-12-31T20:51:33.117Z,96.80
2018-12-31T20:53:58.875Z,96.85
2018-12-31T20:56:24.649Z,96.79
2018-12-31T20:58:50.412Z,96.78
2018-12-31T21:03:47.934Z,96.70
2018-12-31T21:06:13.702Z,96.66
2018-12-31T21:08:39.487Z,96.66
2018-12-31T21:11:25.143Z,96.66
2018-12-31T21:13:51.218Z,96.66
2018-12-31T21:16:16.974Z,96.76
2018-12-31T21:18:42.751Z,96.84
2018-12-31T21:21:08.529Z,96.87
2018-12-31T21:23:34.329Z,96.81
2018-12-31T21:26:00.094Z,96.63
2018-12-31T21:28:25.884Z,96.66
2018-12-31T21:30:53.563Z,96.54
2018-12-31T21:33:19.342Z,96.45
2018-12-31T21:35:45.123Z,96.33
2018-12-31T21:38:10.907Z,96.12
2018-12-31T21:40:36.661Z,95.96
2018-12-31T21:43:02.432Z,95.91
2018-12-31T21:45:28.212Z,95.71
2018-12-31T21:47:55.897Z,95.62
2018-12-31T21:50:21.671Z,95.40
2018-12-31T21:52:47.823Z,95.15
2018-12-31T21:55:15.120Z,94.92
2018-12-31T21:57:40.868Z,94.59
2018-12-31T22:00:48.308Z,94.49
2018-12-31T22:03:14.109Z,94.23
2018-12-31T22:05:39.891Z,94.05
2018-12-31T22:08:05.662Z,93.91
2018-12-31T22:10:33.319Z,93.83
2018-12-31T22:12:59.113Z,93.57
2018-12-31T22:15:24.881Z,93.56
2018-12-31T22:17:58.401Z,93.38
2018-12-31T22:20:24.197Z,93.30
2018-12-31T22:22:49.969Z,93.37
2018-12-31T22:25:17.672Z,93.27
2018-12-31T22:27:43.423Z,93.04
2018-12-31T22:30:09.194Z,93.03
2018-12-31T22:32:35.064Z,92.87
2018-12-31T22:35:00.844Z,92.87
2018-12-31T22:37:26.608Z,92.85
2018-12-31T22:39:52.435Z,92.90
2018-12-31T22:45:05.709Z,92.88
2018-12-31T22:47:31.479Z,92.61
2018-12-31T22:49:57.269Z,92.40
2018-12-31T22:52:23.012Z,92.25
2018-12-31T22:54:48.780Z,92.12
2018-12-31T22:57:14.540Z,91.93
2018-12-31T22:59:40.323Z,91.71
2018-12-31T23:02:06.171Z,91.49
2018-12-31T23:04:31.984Z,91.41
2018-12-31T23:06:57.850Z,91.41
2018-12-31T23:09:25.527Z,91.17
2018-12-31T23:11:51.294Z,91.02
2018-12-31T23:14:17.197Z,90.79
2018-12-31T23:16:43.053Z,90.83
2018-12-31T23:19:08.807Z,90.35
2018-12-31T23:21:34.571Z,90.23
2018-12-31T23:24:02.234Z,89.96
2018-12-31T23:26:28.031Z,90.03
2018-12-31T23:28:53.799Z,89.87
2018-12-31T23:31:19.578Z,90.08
2018-12-31T23:33:45.330Z,90.21
2018-12-31T23:36:12.354Z,90.31
2018-12-31T23:38:38.931Z,90.13
2018-12-31T23:41:06.468Z,90.28
2018-12-31T23:43:32.242Z,90.09
2018-12-31T23:45:58.036Z,90.05
2018-12-31T23:48:23.819Z,89.58
2018-12-31T23:50:49.601Z,89.28
2018-12-31T23:53:15.359Z,89.41
2018-12-31T23:55:41.133Z,89.39
2018-12-31T23:58:06.886Z,89.47
